createdAt,value
2023-03-10T00:00:59.219Z,0
2023-03-10T00:01:59.236Z,0
2023-03-10T00:02:59.233Z,0
2023-03-10T00:03:59.236Z,0
2023-03-10T00:04:59.317Z,0
2023-03-10T00:05:59.328Z,0
2023-03-10T00:06:59.226Z,0
2023-03-10T00:07:59.224Z,0
2023-03-10T00:08:59.237Z,0
2023-03-10T00:09:59.248Z,0
2023-03-10T00:10:59.227Z,0
2023-03-10T00:11:59.234Z,0
2023-03-10T00:12:59.228Z,0
2023-03-10T00:13:59.225Z,0
2023-03-10T00:14:59.268Z,0
2023-03-10T00:15:59.357Z,0
2023-03-10T00:16:59.219Z,0
2023-03-10T00:17:59.221Z,0
2023-03-10T00:18:59.235Z,0
2023-03-10T00:19:59.256Z,0
2023-03-10T00:20:59.254Z,0
2023-03-10T00:21:59.233Z,0
2023-03-10T00:22:59.233Z,0
2023-03-10T00:23:59.258Z,0
2023-03-10T00:24:59.232Z,0
2023-03-10T00:25:59.211Z,0
2023-03-10T00:26:59.227Z,0
2023-03-10T00:27:59.229Z,0
2023-03-10T00:28:59.241Z,0
2023-03-10T00:29:59.262Z,0
2023-03-10T00:30:59.271Z,0
2023-03-10T00:31:59.247Z,0
2023-03-10T00:32:59.235Z,0
2023-03-10T00:33:59.271Z,0
2023-03-10T00:34:59.255Z,0
2023-03-10T00:35:59.276Z,0
2023-03-10T00:36:59.231Z,0
2023-03-10T00:37:59.243Z,0
2023-03-10T00:38:59.241Z,0
2023-03-10T00:39:59.252Z,0
2023-03-10T00:40:59.246Z,0
2023-03-10T00:41:59.234Z,0
2023-03-10T00:42:59.230Z,0
2023-03-10T00:43:59.267Z,0
2023-03-10T00:44:59.258Z,0
2023-03-10T00:45:59.298Z,0
2023-03-10T00:46:59.241Z,0
2023-03-10T00:47:59.239Z,0
2023-03-10T00:48:59.271Z,0
2023-03-10T00:49:59.296Z,0
2023-03-10T00:50:59.257Z,0
2023-03-10T00:51:59.251Z,0
2023-03-10T00:52:59.253Z,0
2023-03-10T00:53:59.236Z,0
2023-03-10T00:54:59.245Z,0
2023-03-10T00:55:59.260Z,0
2023-03-10T00:56:59.236Z,0
2023-03-10T00:57:59.238Z,0
2023-03-10T00:58:59.269Z,0
2023-03-10T00:59:59.262Z,0
2023-03-10T01:00:59.239Z,0
2023-03-10T01:01:59.312Z,0
2023-03-10T01:02:59.244Z,0
2023-03-10T01:03:59.300Z,0
2023-03-10T01:04:59.271Z,0
2023-03-10T01:05:59.234Z,0
2023-03-10T01:06:59.245Z,0
2023-03-10T01:07:59.237Z,0
2023-03-10T01:08:59.240Z,0
2023-03-10T01:09:59.268Z,0
2023-03-10T01:10:59.236Z,0
2023-03-10T01:11:59.238Z,0
2023-03-10T01:12:59.242Z,0
2023-03-10T01:13:59.236Z,0
2023-03-10T01:14:59.267Z,0
2023-03-10T01:15:59.318Z,0
2023-03-10T01:16:59.221Z,0
2023-03-10T01:17:59.269Z,0
2023-03-10T01:18:59.238Z,0
2023-03-10T01:19:59.246Z,0
2023-03-10T01:20:59.248Z,0
2023-03-10T01:21:59.245Z,0
2023-03-10T01:22:59.239Z,0
2023-03-10T01:23:59.234Z,0
2023-03-10T01:24:59.270Z,0
2023-03-10T01:25:59.294Z,0
2023-03-10T01:26:59.240Z,0
2023-03-10T01:27:59.231Z,0
2023-03-10T01:28:59.248Z,0
2023-03-10T01:29:59.262Z,0
2023-03-10T01:30:59.298Z,0
2023-03-10T01:31:59.237Z,0
2023-03-10T01:32:59.241Z,0
2023-03-10T01:33:59.261Z,0
2023-03-10T01:34:59.263Z,0
2023-03-10T01:35:59.310Z,0
2023-03-10T01:36:59.244Z,0
2023-03-10T01:37:59.239Z,0
2023-03-10T01:38:59.235Z,0
2023-03-10T01:39:59.264Z,0
2023-03-10T01:40:59.240Z,0
2023-03-10T01:41:59.242Z,0
2023-03-10T01:42:59.233Z,0
2023-03-10T01:43:59.243Z,0
2023-03-10T01:44:59.250Z,0
2023-03-10T01:45:59.228Z,0
2023-03-10T01:46:59.443Z,0
2023-03-10T01:47:59.227Z,0
2023-03-10T01:48:59.230Z,0
2023-03-10T01:49:59.250Z,0
2023-03-10T01:50:59.230Z,0
2023-03-10T01:51:59.232Z,0
2023-03-10T01:52:59.233Z,0
2023-03-10T01:53:59.234Z,0
2023-03-10T01:54:59.256Z,0
2023-03-10T01:55:59.234Z,0
2023-03-10T01:56:59.233Z,0
2023-03-10T01:57:59.243Z,0
2023-03-10T01:58:59.235Z,0
2023-03-10T01:59:59.241Z,0
2023-03-10T02:00:59.261Z,0
2023-03-10T02:01:59.282Z,0
2023-03-10T02:02:59.221Z,0
2023-03-10T02:03:59.233Z,0
2023-03-10T02:04:59.255Z,0
2023-03-10T02:05:59.231Z,0
2023-03-10T02:06:59.231Z,0
2023-03-10T02:07:59.249Z,0
2023-03-10T02:08:59.223Z,0
2023-03-10T02:09:59.255Z,0
2023-03-10T02:10:59.234Z,0
2023-03-10T02:11:59.237Z,0
2023-03-10T02:12:59.231Z,0
2023-03-10T02:13:59.226Z,0
2023-03-10T02:14:59.261Z,0
2023-03-10T02:15:59.329Z,0
2023-03-10T02:16:59.232Z,0
2023-03-10T02:17:59.317Z,0
2023-03-10T02:18:59.233Z,0
2023-03-10T02:19:59.260Z,0
2023-03-10T02:20:59.261Z,0
2023-03-10T02:21:59.235Z,0
2023-03-10T02:22:59.240Z,0
2023-03-10T02:24:01.646Z,0
2023-03-10T02:24:59.238Z,0
2023-03-10T02:25:59.231Z,0
2023-03-10T02:26:59.243Z,0
2023-03-10T02:27:59.229Z,0
2023-03-10T02:28:59.238Z,0
2023-03-10T02:29:59.979Z,0
2023-03-10T02:30:59.223Z,0
2023-03-10T02:31:59.271Z,0
2023-03-10T02:32:59.257Z,0
2023-03-10T02:33:59.230Z,0
2023-03-10T02:34:59.238Z,0
2023-03-10T02:35:59.285Z,0
2023-03-10T02:36:59.236Z,0
2023-03-10T02:37:59.245Z,0
2023-03-10T02:38:59.245Z,0
2023-03-10T02:39:59.257Z,0
2023-03-10T02:40:59.232Z,0
2023-03-10T02:41:59.236Z,0
2023-03-10T02:42:59.227Z,0
2023-03-10T02:43:59.235Z,0
2023-03-10T02:44:59.288Z,0
2023-03-10T02:45:59.272Z,0
2023-03-10T02:46:59.239Z,0
2023-03-10T02:47:59.245Z,0
2023-03-10T02:48:59.241Z,0
2023-03-10T02:49:59.257Z,0
2023-03-10T02:50:59.239Z,0
2023-03-10T02:51:59.252Z,0
2023-03-10T02:52:59.234Z,0
2023-03-10T02:53:59.259Z,0
2023-03-10T02:54:59.249Z,0
2023-03-10T02:55:59.242Z,0
2023-03-10T02:56:59.243Z,0
2023-03-10T02:57:59.234Z,0
2023-03-10T02:58:59.235Z,0
2023-03-10T02:59:59.255Z,0
2023-03-10T03:00:59.305Z,0
2023-03-10T03:01:59.244Z,0
2023-03-10T03:02:59.254Z,0
2023-03-10T03:03:59.347Z,0
2023-03-10T03:04:59.281Z,0
2023-03-10T03:05:59.246Z,0
2023-03-10T03:06:59.226Z,0
2023-03-10T03:07:59.237Z,0
2023-03-10T03:08:59.236Z,0
2023-03-10T03:09:59.253Z,0
2023-03-10T03:10:59.255Z,0
2023-03-10T03:11:59.234Z,0
2023-03-10T03:12:59.247Z,0
2023-03-10T03:13:59.239Z,0
2023-03-10T03:14:59.246Z,0
2023-03-10T03:15:59.239Z,0
2023-03-10T03:16:59.391Z,0
2023-03-10T03:17:59.265Z,0
2023-03-10T03:18:59.264Z,0
2023-03-10T03:19:59.254Z,0
2023-03-10T03:20:59.237Z,0
2023-03-10T03:21:59.233Z,0
2023-03-10T03:22:59.243Z,0
2023-03-10T03:23:59.230Z,0
2023-03-10T03:24:59.268Z,0
2023-03-10T03:25:59.236Z,0
2023-03-10T03:26:59.244Z,0
2023-03-10T03:27:59.243Z,0
2023-03-10T03:28:59.240Z,0
2023-03-10T03:29:59.280Z,0
2023-03-10T03:30:59.224Z,0
2023-03-10T03:31:59.284Z,0
2023-03-10T03:32:59.247Z,0
2023-03-10T03:33:59.237Z,0
2023-03-10T03:34:59.248Z,0
2023-03-10T03:35:59.301Z,0
2023-03-10T03:36:59.237Z,0
2023-03-10T03:37:59.238Z,0
2023-03-10T03:38:59.228Z,0
2023-03-10T03:39:59.326Z,0
2023-03-10T03:40:59.245Z,0
2023-03-10T03:41:59.241Z,0
2023-03-10T03:42:59.231Z,0
2023-03-10T03:43:59.235Z,0
2023-03-10T03:44:59.256Z,0
2023-03-10T03:45:59.345Z,0
2023-03-10T03:46:59.218Z,0
2023-03-10T03:47:59.226Z,0
2023-03-10T03:48:59.229Z,0
2023-03-10T03:49:59.249Z,0
2023-03-10T03:50:59.236Z,0
2023-03-10T03:51:59.221Z,0
2023-03-10T03:52:59.219Z,0
2023-03-10T03:53:59.233Z,0
2023-03-10T03:54:59.252Z,0
2023-03-10T03:55:59.241Z,0
2023-03-10T03:56:59.231Z,0
2023-03-10T03:57:59.231Z,0
2023-03-10T03:58:59.235Z,0
2023-03-10T03:59:59.249Z,0
2023-03-10T04:00:59.237Z,0
2023-03-10T04:01:59.270Z,0
2023-03-10T04:02:59.231Z,0
2023-03-10T04:03:59.310Z,0
2023-03-10T04:04:59.268Z,0
2023-03-10T04:05:59.271Z,0
2023-03-10T04:06:59.268Z,0
2023-03-10T04:07:59.255Z,0
2023-03-10T04:08:59.238Z,0
2023-03-10T04:09:59.265Z,0
2023-03-10T04:10:59.240Z,0
2023-03-10T04:11:59.229Z,0
2023-03-10T04:12:59.251Z,0
2023-03-10T04:13:59.232Z,0
2023-03-10T04:14:59.252Z,0
2023-03-10T04:15:59.309Z,0
2023-03-10T04:16:59.238Z,0
2023-03-10T04:17:59.240Z,0
2023-03-10T04:18:59.242Z,0
2023-03-10T04:20:07.040Z,0
2023-03-10T04:20:59.243Z,0
2023-03-10T04:21:59.235Z,0
2023-03-10T04:22:59.234Z,0
2023-03-10T04:23:59.231Z,0
2023-03-10T04:24:59.244Z,0
2023-03-10T04:25:59.226Z,0
2023-03-10T04:26:59.234Z,0
2023-03-10T04:27:59.237Z,0
2023-03-10T04:28:59.238Z,0
2023-03-10T04:29:59.405Z,0
2023-03-10T04:30:59.334Z,0
2023-03-10T04:32:05.646Z,0
2023-03-10T04:32:59.424Z,0
2023-03-10T04:33:59.245Z,0
2023-03-10T04:34:59.254Z,0
2023-03-10T04:35:59.277Z,0
2023-03-10T04:36:59.244Z,0
2023-03-10T04:37:59.237Z,0
2023-03-10T04:38:59.233Z,0
2023-03-10T04:39:59.280Z,0
2023-03-10T04:40:59.245Z,0
2023-03-10T04:41:59.235Z,0
2023-03-10T04:42:59.243Z,0
2023-03-10T04:43:59.247Z,0
2023-03-10T04:44:59.255Z,0
2023-03-10T04:45:59.276Z,0
2023-03-10T04:46:59.248Z,0
2023-03-10T04:47:59.237Z,0
2023-03-10T04:48:59.240Z,0
2023-03-10T04:49:59.248Z,0
2023-03-10T04:50:59.247Z,0
2023-03-10T04:51:59.241Z,0
2023-03-10T04:52:59.245Z,0
2023-03-10T04:53:59.243Z,0
2023-03-10T04:54:59.254Z,0
2023-03-10T04:55:59.257Z,0
2023-03-10T04:56:59.244Z,0
2023-03-10T04:57:59.252Z,0
2023-03-10T04:58:59.244Z,0
2023-03-10T05:00:00.985Z,0
2023-03-10T05:01:03.308Z,0
2023-03-10T05:01:59.349Z,0
2023-03-10T05:02:59.244Z,0
2023-03-10T05:03:59.274Z,0
2023-03-10T05:04:59.269Z,0
2023-03-10T05:05:59.246Z,0
2023-03-10T05:06:59.234Z,0
2023-03-10T05:07:59.238Z,0
2023-03-10T05:08:59.234Z,0
2023-03-10T05:09:59.248Z,0
2023-03-10T05:10:59.229Z,0
2023-03-10T05:11:59.230Z,0
2023-03-10T05:12:59.238Z,0
2023-03-10T05:13:59.237Z,0
2023-03-10T05:14:59.269Z,0
2023-03-10T05:15:59.259Z,0
2023-03-10T05:16:59.248Z,0
2023-03-10T05:17:59.231Z,0
2023-03-10T05:18:59.232Z,0
2023-03-10T05:19:59.262Z,0
2023-03-10T05:20:59.251Z,0
2023-03-10T05:21:59.218Z,0
2023-03-10T05:22:59.230Z,0
2023-03-10T05:23:59.239Z,0
2023-03-10T05:24:59.264Z,0
2023-03-10T05:25:59.229Z,0.01
2023-03-10T05:26:59.242Z,0.01
2023-03-10T05:27:59.232Z,0.01
2023-03-10T05:28:59.237Z,0.01
2023-03-10T05:29:59.260Z,0.01
2023-03-10T05:30:59.256Z,0.01
2023-03-10T05:31:59.233Z,0.02
2023-03-10T05:32:59.326Z,0.02
2023-03-10T05:33:59.233Z,0.02
2023-03-10T05:34:59.255Z,0.02
2023-03-10T05:35:59.284Z,0.02
2023-03-10T05:36:59.233Z,0.02
2023-03-10T05:37:59.245Z,0.02
2023-03-10T05:38:59.236Z,0.02
2023-03-10T05:39:59.268Z,0.03
2023-03-10T05:40:59.256Z,0.03
2023-03-10T05:41:59.236Z,0.03
2023-03-10T05:42:59.234Z,0.03
2023-03-10T05:43:59.244Z,0.03
2023-03-10T05:44:59.233Z,0.04
2023-03-10T05:45:59.243Z,0.04
2023-03-10T05:46:59.328Z,0.04
2023-03-10T05:47:59.227Z,0.05
2023-03-10T05:48:59.238Z,0.05
2023-03-10T05:49:59.258Z,0.05
2023-03-10T05:50:59.260Z,0.05
2023-03-10T05:51:59.239Z,0.06
2023-03-10T05:52:59.227Z,0.06
2023-03-10T05:53:59.240Z,0.06
2023-03-10T05:54:59.277Z,0.06
2023-03-10T05:55:59.238Z,0.06
2023-03-10T05:56:59.237Z,0.06
2023-03-10T05:57:59.241Z,0.06
2023-03-10T05:58:59.238Z,0.06
2023-03-10T05:59:59.286Z,0.07
2023-03-10T06:00:59.234Z,0.06
2023-03-10T06:01:59.235Z,0.06
2023-03-10T06:02:59.315Z,0.05
2023-03-10T06:03:59.301Z,0.05
2023-03-10T06:04:59.236Z,0.05
2023-03-10T06:05:59.233Z,0.05
2023-03-10T06:06:59.239Z,0.05
2023-03-10T06:07:59.226Z,0.05
2023-03-10T06:08:59.252Z,0.05
2023-03-10T06:09:59.263Z,0.06
2023-03-10T06:10:59.234Z,0.06
2023-03-10T06:11:59.233Z,0.06
2023-03-10T06:12:59.243Z,0.06
2023-03-10T06:13:59.244Z,0.06
2023-03-10T06:14:59.234Z,0.06
2023-03-10T06:15:59.381Z,0.06
2023-03-10T06:16:59.241Z,0.06
2023-03-10T06:17:59.231Z,0.07
2023-03-10T06:18:59.256Z,0.07
2023-03-10T06:19:59.272Z,0.08
2023-03-10T06:20:59.241Z,0.08
2023-03-10T06:21:59.246Z,0.09
2023-03-10T06:22:59.255Z,0.1
2023-03-10T06:23:59.282Z,0.1
2023-03-10T06:24:59.251Z,0.1
2023-03-10T06:25:59.250Z,0.1
2023-03-10T06:26:59.232Z,0.1
2023-03-10T06:27:59.236Z,0.11
2023-03-10T06:28:59.232Z,0.11
2023-03-10T06:29:59.262Z,0.11
2023-03-10T06:30:59.244Z,0.11
2023-03-10T06:31:59.275Z,0.1
2023-03-10T06:32:59.263Z,0.1
2023-03-10T06:33:59.239Z,0.1
2023-03-10T06:34:59.267Z,0.1
2023-03-10T06:35:59.289Z,0.1
2023-03-10T06:36:59.248Z,0.1
2023-03-10T06:37:59.240Z,0.11
2023-03-10T06:38:59.248Z,0.12
2023-03-10T06:39:59.262Z,0.12
2023-03-10T06:40:59.252Z,0.14
2023-03-10T06:41:59.251Z,0.15
2023-03-10T06:42:59.235Z,0.15
2023-03-10T06:43:59.251Z,0.15
2023-03-10T06:44:59.275Z,0.15
2023-03-10T06:45:59.282Z,0.16
2023-03-10T06:46:59.243Z,0.16
2023-03-10T06:47:59.263Z,0.16
2023-03-10T06:48:59.237Z,0.17
2023-03-10T06:49:59.252Z,0.17
2023-03-10T06:50:59.237Z,0.17
2023-03-10T06:51:59.250Z,0.17
2023-03-10T06:52:59.247Z,0.17
2023-03-10T06:53:59.231Z,0.15
2023-03-10T06:54:59.263Z,0.15
2023-03-10T06:55:59.239Z,0.14
2023-03-10T06:56:59.239Z,0.15
2023-03-10T06:57:59.245Z,0.17
2023-03-10T06:58:59.238Z,0.2
2023-03-10T06:59:59.272Z,0.26
2023-03-10T07:00:59.285Z,0.31
2023-03-10T07:01:59.253Z,0.38
2023-03-10T07:02:59.243Z,0.41
2023-03-10T07:03:59.254Z,0.43
2023-03-10T07:04:59.367Z,0.44
2023-03-10T07:05:59.241Z,0.44
2023-03-10T07:06:59.233Z,0.45
2023-03-10T07:07:59.249Z,0.45
2023-03-10T07:08:59.259Z,0.45
2023-03-10T07:09:59.275Z,0.41
2023-03-10T07:10:59.228Z,0.4
2023-03-10T07:11:59.252Z,0.38
2023-03-10T07:12:59.228Z,0.38
2023-03-10T07:13:59.238Z,0.42
2023-03-10T07:14:59.248Z,0.5
2023-03-10T07:15:59.243Z,0.58
2023-03-10T07:16:59.285Z,0.61
2023-03-10T07:17:59.277Z,0.59
2023-03-10T07:18:59.235Z,0.57
2023-03-10T07:19:59.253Z,0.56
2023-03-10T07:20:59.236Z,0.55
2023-03-10T07:21:59.240Z,0.54
2023-03-10T07:22:59.230Z,0.53
2023-03-10T07:23:59.234Z,0.53
2023-03-10T07:24:59.258Z,0.51
2023-03-10T07:25:59.228Z,0.53
2023-03-10T07:26:59.248Z,0.6
2023-03-10T07:27:59.241Z,0.67
2023-03-10T07:28:59.236Z,0.68
2023-03-10T07:29:59.260Z,0.65
2023-03-10T07:30:59.268Z,0.61
2023-03-10T07:31:59.238Z,0.58
2023-03-10T07:32:59.242Z,0.56
2023-03-10T07:33:59.235Z,0.55
2023-03-10T07:34:59.252Z,0.57
2023-03-10T07:35:59.305Z,0.62
2023-03-10T07:36:59.236Z,0.69
2023-03-10T07:37:59.246Z,0.78
2023-03-10T07:38:59.238Z,0.87
2023-03-10T07:39:59.257Z,0.98
2023-03-10T07:41:01.817Z,1.09
2023-03-10T07:41:59.238Z,1.2
2023-03-10T07:42:59.233Z,1.3
2023-03-10T07:43:59.233Z,1.38
2023-03-10T07:44:59.260Z,1.4
2023-03-10T07:45:59.329Z,1.37
2023-03-10T07:46:59.231Z,1.35
2023-03-10T07:47:59.241Z,1.47
2023-03-10T07:48:59.230Z,1.08
2023-03-10T07:49:59.249Z,1.05
2023-03-10T07:50:59.217Z,0.76
2023-03-10T07:51:59.256Z,0.75
2023-03-10T07:52:59.224Z,0.8
2023-03-10T07:53:59.236Z,0.87
2023-03-10T07:54:59.257Z,0.93
2023-03-10T07:55:59.238Z,0.93
2023-03-10T07:56:59.236Z,0.91
2023-03-10T07:57:59.231Z,0.88
2023-03-10T07:58:59.245Z,0.87
2023-03-10T07:59:59.244Z,0.84
2023-03-10T08:00:59.248Z,0.81
2023-03-10T08:01:59.225Z,0.75
2023-03-10T08:02:59.271Z,0.69
2023-03-10T08:03:59.396Z,0.66
2023-03-10T08:04:59.286Z,0.65
2023-03-10T08:05:59.236Z,0.69
2023-03-10T08:06:59.233Z,0.75
2023-03-10T08:07:59.232Z,0.8
2023-03-10T08:08:59.247Z,0.8
2023-03-10T08:09:59.238Z,0.84
2023-03-10T08:10:59.238Z,0.87
2023-03-10T08:11:59.239Z,0.89
2023-03-10T08:12:59.237Z,0.91
2023-03-10T08:13:59.356Z,0.91
2023-03-10T08:14:59.243Z,0.92
2023-03-10T08:15:59.374Z,0.91
2023-03-10T08:16:59.272Z,0.9
2023-03-10T08:17:59.243Z,0.94
2023-03-10T08:18:59.240Z,0.98
2023-03-10T08:19:59.234Z,0.99
2023-03-10T08:20:59.237Z,0.99
2023-03-10T08:21:59.249Z,0.99
2023-03-10T08:22:59.240Z,1
2023-03-10T08:23:59.229Z,1.04
2023-03-10T08:24:59.264Z,1.18
2023-03-10T08:25:59.224Z,1.37
2023-03-10T08:26:59.250Z,1.76
2023-03-10T08:27:59.233Z,2.27
2023-03-10T08:28:59.242Z,2.6
2023-03-10T08:29:59.256Z,2.93
2023-03-10T08:31:04.827Z,2.73
2023-03-10T08:31:59.279Z,2.27
2023-03-10T08:32:59.329Z,2.61
2023-03-10T08:33:59.235Z,2.78
2023-03-10T08:34:59.269Z,2.58
2023-03-10T08:35:59.294Z,2.68
2023-03-10T08:36:59.237Z,3.87
2023-03-10T08:37:59.217Z,6.76
2023-03-10T08:38:59.234Z,5.89
2023-03-10T08:39:59.263Z,6.24
2023-03-10T08:40:59.237Z,3.57
2023-03-10T08:41:59.238Z,3.45
2023-03-10T08:42:59.240Z,2.78
2023-03-10T08:43:59.251Z,2.34
2023-03-10T08:44:59.257Z,1.75
2023-03-10T08:45:59.239Z,1.52
2023-03-10T08:46:59.321Z,1.29
2023-03-10T08:47:59.228Z,1.06
2023-03-10T08:48:59.263Z,0.91
2023-03-10T08:49:59.257Z,0.85
2023-03-10T08:50:59.237Z,0.86
2023-03-10T08:51:59.231Z,0.91
2023-03-10T08:52:59.240Z,0.93
2023-03-10T08:53:59.240Z,0.96
2023-03-10T08:54:59.981Z,1.04
2023-03-10T08:55:59.243Z,1.09
2023-03-10T08:56:59.234Z,1.15
2023-03-10T08:57:59.241Z,1.28
2023-03-10T08:58:59.278Z,1.54
2023-03-10T08:59:59.248Z,1.79
2023-03-10T09:00:59.235Z,1.92
2023-03-10T09:01:59.326Z,2.17
2023-03-10T09:02:59.357Z,2.45
2023-03-10T09:03:59.233Z,2.93
2023-03-10T09:04:59.258Z,3.4
2023-03-10T09:05:59.221Z,3.06
2023-03-10T09:06:59.245Z,2.69
2023-03-10T09:07:59.239Z,2.79
2023-03-10T09:08:59.224Z,2.79
2023-03-10T09:09:59.298Z,2.26
2023-03-10T09:10:59.228Z,3.65
2023-03-10T09:11:59.238Z,3.71
2023-03-10T09:13:12.938Z,3.23
2023-03-10T09:13:59.276Z,4.67
2023-03-10T09:14:59.258Z,4.25
2023-03-10T09:15:59.322Z,3.42
2023-03-10T09:16:59.438Z,3.23
2023-03-10T09:17:59.234Z,3.14
2023-03-10T09:18:59.249Z,2.95
2023-03-10T09:19:59.266Z,2.63
2023-03-10T09:20:59.233Z,2.8
2023-03-10T09:21:59.228Z,2.77
2023-03-10T09:22:59.235Z,3.37
2023-03-10T09:23:59.243Z,5.38
2023-03-10T09:25:00.747Z,7.02
2023-03-10T09:25:59.266Z,8.26
2023-03-10T09:26:59.236Z,7.91
2023-03-10T09:27:59.228Z,7.24
2023-03-10T09:28:59.238Z,7.46
2023-03-10T09:30:01.214Z,6.49
2023-03-10T09:30:59.239Z,7.81
2023-03-10T09:31:59.279Z,7.51
2023-03-10T09:32:59.317Z,6.6
2023-03-10T09:33:59.239Z,7.58
2023-03-10T09:34:59.259Z,7.79
2023-03-10T09:36:59.234Z,7.16
2023-03-10T09:37:59.238Z,6.58
2023-03-10T09:38:59.236Z,6.47
2023-03-10T09:39:59.266Z,7.4
2023-03-10T09:40:59.239Z,7.97
2023-03-10T09:41:59.238Z,8.7
2023-03-10T09:42:59.235Z,10.7
2023-03-10T09:43:59.244Z,10.43
2023-03-10T09:44:59.256Z,9.09
2023-03-10T09:45:59.307Z,8.45
2023-03-10T09:46:59.236Z,8.63
2023-03-10T09:47:59.226Z,8.31
2023-03-10T09:48:59.246Z,8.26
2023-03-10T09:49:59.264Z,7.94
2023-03-10T09:50:59.241Z,7.64
2023-03-10T09:51:59.233Z,7.68
2023-03-10T09:52:59.245Z,8.43
2023-03-10T09:53:59.233Z,8.78
2023-03-10T09:54:59.260Z,7.06
2023-03-10T09:55:59.250Z,8.16
2023-03-10T09:56:59.244Z,8.59
2023-03-10T09:57:59.238Z,8.12
2023-03-10T09:58:59.248Z,6.02
2023-03-10T09:59:59.267Z,8.28
2023-03-10T10:00:59.278Z,8.5
2023-03-10T10:01:59.248Z,8.15
2023-03-10T10:02:59.247Z,7.5
2023-03-10T10:03:59.420Z,6.97
2023-03-10T10:04:59.878Z,6.62
2023-03-10T10:05:59.232Z,6.81
2023-03-10T10:06:59.250Z,3.77
2023-03-10T10:07:59.248Z,6.17
2023-03-10T10:09:04.571Z,6.17
2023-03-10T10:09:59.252Z,5.08
2023-03-10T10:10:59.237Z,5.23
2023-03-10T10:11:59.231Z,4.98
2023-03-10T10:12:59.247Z,5.31
2023-03-10T10:14:01.588Z,5.19
2023-03-10T10:14:59.256Z,4.78
2023-03-10T10:16:18.192Z,6.52
2023-03-10T10:16:59.353Z,5.77
2023-03-10T10:18:08.657Z,6.16
2023-03-10T10:18:59.256Z,6.45
2023-03-10T10:19:59.265Z,6.01
2023-03-10T10:20:59.370Z,5.71
2023-03-10T10:21:59.235Z,5.56
2023-03-10T10:22:59.244Z,5.03
2023-03-10T10:23:59.253Z,2.63
2023-03-10T10:24:59.248Z,1.69
2023-03-10T10:26:00.864Z,1.68
2023-03-10T10:26:59.232Z,1.76
2023-03-10T10:27:59.233Z,2.49
2023-03-10T10:28:59.233Z,2.32
2023-03-10T10:29:59.258Z,2.01
2023-03-10T10:30:59.267Z,1.63
2023-03-10T10:31:59.238Z,1.33
2023-03-10T10:32:59.345Z,1.35
2023-03-10T10:33:59.239Z,1.11
2023-03-10T10:34:59.256Z,0.82
2023-03-10T10:35:59.356Z,0.79
2023-03-10T10:36:59.236Z,0.89
2023-03-10T10:37:59.233Z,0.85
2023-03-10T10:38:59.253Z,0.83
2023-03-10T10:39:59.246Z,0.88
2023-03-10T10:40:59.233Z,0.91
2023-03-10T10:41:59.240Z,1.14
2023-03-10T10:42:59.239Z,1.06
2023-03-10T10:43:59.236Z,1.33
2023-03-10T10:44:59.255Z,1.28
2023-03-10T10:45:59.289Z,1.26
2023-03-10T10:46:59.243Z,1.12
2023-03-10T10:47:59.250Z,1.24
2023-03-10T10:48:59.236Z,1.16
2023-03-10T10:49:59.263Z,1.18
2023-03-10T10:50:59.231Z,1.61
2023-03-10T10:51:59.236Z,2.05
2023-03-10T10:52:59.236Z,1.69
2023-03-10T10:53:59.246Z,1.51
2023-03-10T10:54:59.252Z,1.33
2023-03-10T10:55:59.247Z,1.45
2023-03-10T10:56:59.238Z,1.69
2023-03-10T10:58:01.286Z,1.75
2023-03-10T10:58:59.254Z,1.35
2023-03-10T10:59:59.254Z,1.19
2023-03-10T11:00:59.367Z,1.09
2023-03-10T11:01:59.251Z,0.98
2023-03-10T11:02:59.246Z,0.88
2023-03-10T11:03:59.246Z,0.77
2023-03-10T11:04:59.253Z,0.7
2023-03-10T11:05:59.243Z,0.73
2023-03-10T11:06:59.239Z,0.82
2023-03-10T11:07:59.238Z,0.8
2023-03-10T11:08:59.238Z,0.8
2023-03-10T11:09:59.244Z,0.95
2023-03-10T11:10:59.238Z,1.18
2023-03-10T11:11:59.233Z,1.39
2023-03-10T11:12:59.250Z,1.69
2023-03-10T11:13:59.229Z,1.83
2023-03-10T11:14:59.264Z,1.77
2023-03-10T11:15:59.282Z,1.55
2023-03-10T11:16:59.236Z,1.5
2023-03-10T11:17:59.226Z,1.56
2023-03-10T11:18:59.245Z,1.61
2023-03-10T11:19:59.249Z,1.82
2023-03-10T11:20:59.248Z,1.72
2023-03-10T11:21:59.242Z,1.83
2023-03-10T11:22:59.260Z,2.23
2023-03-10T11:23:59.252Z,2.35
2023-03-10T11:24:59.256Z,2.42
2023-03-10T11:25:59.262Z,2.83
2023-03-10T11:26:59.252Z,2.63
2023-03-10T11:27:59.245Z,2.38
2023-03-10T11:28:59.281Z,2.35
2023-03-10T11:29:59.288Z,2.25
2023-03-10T11:30:59.327Z,2.09
2023-03-10T11:31:59.333Z,2.03
2023-03-10T11:32:59.236Z,1.79
2023-03-10T11:33:59.236Z,1.53
2023-03-10T11:34:59.258Z,1.41
2023-03-10T11:36:01.135Z,1.39
2023-03-10T11:36:59.248Z,1.38
2023-03-10T11:37:59.262Z,1.74
2023-03-10T11:38:59.245Z,2.16
2023-03-10T11:39:59.259Z,2.32
2023-03-10T11:40:59.252Z,2.73
2023-03-10T11:41:59.337Z,2.8
2023-03-10T11:42:59.244Z,3
2023-03-10T11:43:59.259Z,3.2
2023-03-10T11:44:59.250Z,3.19
2023-03-10T11:45:59.301Z,4.21
2023-03-10T11:46:59.251Z,3.09
2023-03-10T11:47:59.229Z,2.76
2023-03-10T11:48:59.250Z,2.72
2023-03-10T11:49:59.281Z,3.12
2023-03-10T11:50:59.281Z,3.04
2023-03-10T11:51:59.255Z,3.37
2023-03-10T11:52:59.244Z,5
2023-03-10T11:53:59.249Z,6.7
2023-03-10T11:54:59.270Z,3.02
2023-03-10T11:55:59.240Z,3
2023-03-10T11:56:59.237Z,3.42
2023-03-10T11:57:59.236Z,3.91
2023-03-10T11:58:59.243Z,3.32
2023-03-10T11:59:59.278Z,4.25
2023-03-10T12:00:59.245Z,5.27
2023-03-10T12:01:59.342Z,3.85
2023-03-10T12:02:59.239Z,4.74
2023-03-10T12:03:59.357Z,4.88
2023-03-10T12:04:59.326Z,3.6
2023-03-10T12:05:59.250Z,4.53
2023-03-10T12:06:59.246Z,3.38
2023-03-10T12:07:59.232Z,3.69
2023-03-10T12:08:59.245Z,3.69
2023-03-10T12:09:59.282Z,8.58
2023-03-10T12:10:59.239Z,6.54
2023-03-10T12:11:59.234Z,3.56
2023-03-10T12:12:59.242Z,3.39
2023-03-10T12:13:59.248Z,5.54
2023-03-10T12:14:59.261Z,3.38
2023-03-10T12:15:59.328Z,2.89
2023-03-10T12:16:59.241Z,3.05
2023-03-10T12:17:59.245Z,3.17
2023-03-10T12:18:59.236Z,2.76
2023-03-10T12:19:59.262Z,2.68
2023-03-10T12:20:59.239Z,2.65
2023-03-10T12:21:59.241Z,3.08
2023-03-10T12:22:59.252Z,2.74
2023-03-10T12:23:59.230Z,2.86
2023-03-10T12:24:59.266Z,3.01
2023-03-10T12:25:59.239Z,3
2023-03-10T12:26:59.287Z,3.31
2023-03-10T12:27:59.251Z,2.63
2023-03-10T12:28:59.232Z,2.66
2023-03-10T12:29:59.264Z,3.56
2023-03-10T12:30:59.264Z,4.67
2023-03-10T12:31:59.441Z,2.94
2023-03-10T12:32:59.333Z,2.65
2023-03-10T12:33:59.245Z,3.08
2023-03-10T12:34:59.277Z,2.76
2023-03-10T12:35:59.293Z,2.95
2023-03-10T12:36:59.237Z,3.18
2023-03-10T12:37:59.234Z,3.69
2023-03-10T12:38:59.236Z,2.93
2023-03-10T12:39:59.254Z,2.65
2023-03-10T12:40:59.247Z,2.73
2023-03-10T12:41:59.235Z,2.58
2023-03-10T12:42:59.227Z,2.56
2023-03-10T12:43:59.235Z,2.66
2023-03-10T12:44:59.252Z,3.88
2023-03-10T12:45:59.243Z,3.62
2023-03-10T12:46:59.357Z,4.27
2023-03-10T12:47:59.239Z,7.37
2023-03-10T12:48:59.240Z,5.35
2023-03-10T12:49:59.269Z,4.44
2023-03-10T12:50:59.235Z,3
2023-03-10T12:51:59.236Z,4.73
2023-03-10T12:52:59.240Z,3.8
2023-03-10T12:53:59.248Z,2.68
2023-03-10T12:54:59.265Z,5.29
2023-03-10T12:55:59.245Z,4.87
2023-03-10T12:56:59.238Z,3.39
2023-03-10T12:57:59.245Z,2.48
2023-03-10T12:58:59.230Z,2.37
2023-03-10T12:59:59.271Z,3.35
2023-03-10T13:00:59.320Z,4.01
2023-03-10T13:01:59.234Z,3.23
2023-03-10T13:02:59.222Z,2.97
2023-03-10T13:03:59.324Z,2.81
2023-03-10T13:04:59.260Z,2.64
2023-03-10T13:05:59.251Z,3.35
2023-03-10T13:06:59.243Z,3.72
2023-03-10T13:07:59.234Z,2.87
2023-03-10T13:08:59.268Z,2.87
2023-03-10T13:09:59.262Z,2.88
2023-03-10T13:10:59.240Z,3.07
2023-03-10T13:11:59.236Z,4
2023-03-10T13:12:59.235Z,3.39
2023-03-10T13:13:59.243Z,3.37
2023-03-10T13:14:59.264Z,3.56
2023-03-10T13:15:59.280Z,3.92
2023-03-10T13:16:59.252Z,4.12
2023-03-10T13:17:59.255Z,4.63
2023-03-10T13:18:59.239Z,3.91
2023-03-10T13:19:59.262Z,5.56
2023-03-10T13:20:59.241Z,5.91
2023-03-10T13:21:59.249Z,5.6
2023-03-10T13:22:59.246Z,5.72
2023-03-10T13:23:59.245Z,4.77
2023-03-10T13:24:59.254Z,4.24
2023-03-10T13:25:59.241Z,4.86
2023-03-10T13:26:59.246Z,5.65
2023-03-10T13:27:59.234Z,5.54
2023-03-10T13:28:59.233Z,5.28
2023-03-10T13:29:59.335Z,4.57
2023-03-10T13:30:59.242Z,4.04
2023-03-10T13:31:59.373Z,2.64
2023-03-10T13:32:59.308Z,2.55
2023-03-10T13:33:59.235Z,3.26
2023-03-10T13:34:59.265Z,3.71
2023-03-10T13:35:59.299Z,3.68
2023-03-10T13:36:59.238Z,3.12
2023-03-10T13:37:59.244Z,3.84
2023-03-10T13:38:59.241Z,3.64
2023-03-10T13:39:59.257Z,3.89
2023-03-10T13:40:59.235Z,3.98
2023-03-10T13:41:59.248Z,4.2
2023-03-10T13:42:59.243Z,3.45
2023-03-10T13:43:59.250Z,3.87
2023-03-10T13:44:59.265Z,3.92
2023-03-10T13:45:59.286Z,3.04
2023-03-10T13:46:59.244Z,3.17
2023-03-10T13:47:59.254Z,3.02
2023-03-10T13:48:59.246Z,2.11
2023-03-10T13:49:59.253Z,1.97
2023-03-10T13:50:59.248Z,1.88
2023-03-10T13:51:59.257Z,1.88
2023-03-10T13:52:59.239Z,2.02
2023-03-10T13:53:59.247Z,2.55
2023-03-10T13:54:59.347Z,3.23